Time;durP1;ratioP1;P1;durP2;ratioP2;P2;SDS_P1;SDS_P2;PMS_P1;PMS_P2;Temp;Humidity;BMP_temperature;BMP_pressure;BME280_temperature;BME280_humidity;BME280_pressure;Samples;Min_cycle;Max_cycle;Signal;HPM_P1;HPM_P2
2022/07/06 00:01:25;;;;;;;2.67;1.75;;;;;;;19.08;52.73;99480.66;5044332;28;20034;-79
2022/07/06 00:03:51;;;;;;;3.65;1.40;;;;;;;19.10;53.18;99495.53;5013780;28;20044;-79
2022/07/06 00:06:17;;;;;;;1.60;1.50;;;;;;;19.21;52.38;99493.50;5029257;28;20733;-79
2022/07/06 00:08:43;;;;;;;4.88;1.70;;;;;;;19.07;52.49;99497.97;5032477;28;20040;-79
2022/07/06 00:11:08;;;;;;;3.80;1.60;;;;;;;18.94;52.95;99498.66;5030188;28;20086;-80
2022/07/06 00:13:34;;;;;;;3.67;1.48;;;;;;;18.89;53.04;99493.31;5043768;28;20481;-80
2022/07/06 00:15:59;;;;;;;2.15;1.20;;;;;;;18.89;52.93;99487.91;5024173;28;20037;-80
2022/07/06 00:18:24;;;;;;;2.00;1.52;;;;;;;18.82;52.96;99495.56;5008456;28;20036;-80
2022/07/06 00:20:50;;;;;;;1.73;1.63;;;;;;;18.85;53.40;99503.09;4995524;28;20068;-80
2022/07/06 00:23:15;;;;;;;4.40;1.85;;;;;;;18.95;53.24;99495.69;5014913;28;20040;-80
2022/07/06 00:25:41;;;;;;;1.70;1.60;;;;;;;18.63;53.54;99488.16;5027381;28;20038;-80
2022/07/06 00:28:06;;;;;;;1.77;1.50;;;;;;;18.62;53.91;99502.78;5028131;28;20025;-79
2022/07/06 00:30:32;;;;;;;1.70;1.60;;;;;;;18.54;53.57;99483.66;5027904;28;20396;-79
2022/07/06 00:32:58;;;;;;;3.83;1.73;;;;;;;18.61;53.23;99478.72;5006853;28;20033;-79
2022/07/06 00:35:24;;;;;;;4.57;1.88;;;;;;;18.84;53.16;99486.06;5010852;28;20116;-80
2022/07/06 00:37:50;;;;;;;7.80;1.50;;;;;;;18.54;53.96;99489.06;5009631;28;20044;-79
2022/07/06 00:40:15;;;;;;;2.60;1.60;;;;;;;18.50;53.47;99467.19;5008328;28;20029;-79
2022/07/06 00:42:46;;;;;;;2.05;1.70;;;;;;;18.54;53.57;99468.22;5027623;28;20084;-80
2022/07/06 00:45:13;;;;;;;2.38;1.63;;;;;;;18.51;53.91;99471.53;5027129;28;20312;-79
2022/07/06 00:47:40;;;;;;;3.85;2.05;;;;;;;18.60;53.98;99477.09;5026781;28;20056;-79
2022/07/06 00:50:13;;;;;;;2.95;1.90;;;;;;;18.53;54.21;99485.56;5026170;28;20025;-79
2022/07/06 00:52:43;;;;;;;2.45;2.05;;;;;;;18.35;53.84;99470.00;5026663;28;20088;-79
2022/07/06 00:55:09;;;;;;;2.53;1.30;;;;;;;18.36;54.42;99476.22;5028978;28;20037;-79
2022/07/06 00:57:36;;;;;;;2.15;1.63;;;;;;;18.36;54.48;99484.31;4995308;28;20030;-79
2022/07/06 01:00:06;;;;;;;2.05;1.65;;;;;;;18.31;54.69;99495.16;5013493;28;20064;-79
2022/07/06 01:02:33;;;;;;;2.85;1.67;;;;;;;18.24;54.29;99483.91;5026998;28;20025;-80
2022/07/06 01:04:59;;;;;;;2.55;1.67;;;;;;;18.25;54.80;99478.19;5027335;28;20473;-79
2022/07/06 01:07:25;;;;;;;2.00;1.70;;;;;;;18.16;54.67;99488.00;5029494;28;20022;-79
2022/07/06 01:09:51;;;;;;;5.25;1.80;;;;;;;18.16;54.72;99485.28;5028600;28;20044;-79
2022/07/06 01:12:17;;;;;;;2.75;1.77;;;;;;;18.23;54.58;99466.06;5029739;28;20033;-79
2022/07/06 01:14:43;;;;;;;2.30;1.83;;;;;;;18.17;54.60;99470.72;5031205;28;20039;-79
2022/07/06 01:17:09;;;;;;;4.10;1.73;;;;;;;18.07;54.96;99464.56;5031123;28;20039;-79
2022/07/06 01:19:34;;;;;;;2.40;1.65;;;;;;;17.94;54.99;99450.63;5015174;28;20054;-80
2022/07/06 01:22:00;;;;;;;1.98;1.73;;;;;;;17.76;55.30;99448.56;5024097;28;20041;-79
2022/07/06 01:24:26;;;;;;;3.83;2.22;;;;;;;16.38;61.18;99464.66;5029305;28;20052;-79
2022/07/06 01:26:52;;;;;;;3.38;2.13;;;;;;;15.67;63.59;99468.41;4993729;28;20030;-79
2022/07/06 01:29:18;;;;;;;2.92;1.80;;;;;;;15.83;62.75;99470.06;5033026;28;20098;-79
2022/07/06 01:31:49;;;;;;;3.50;1.83;;;;;;;16.83;58.29;99466.53;5029167;28;20116;-79
2022/07/06 01:34:16;;;;;;;2.95;1.65;;;;;;;17.13;57.20;99468.31;5030799;28;20029;-79
2022/07/06 01:36:41;;;;;;;1.50;1.40;;;;;;;17.68;55.71;99468.06;5013197;28;20037;-80
2022/07/06 01:39:08;;;;;;;2.53;1.73;;;;;;;17.69;56.08;99471.59;5028181;28;20079;-79
2022/07/06 01:41:34;;;;;;;3.63;1.60;;;;;;;17.51;56.37;99462.25;5012425;28;20108;-79
2022/07/06 01:44:01;;;;;;;4.65;2.53;;;;;;;17.27;58.33;99463.13;5025433;28;20057;-79
2022/07/06 01:46:27;;;;;;;3.95;1.77;;;;;;;16.75;59.60;99477.88;5030196;28;20033;-79
2022/07/06 01:48:53;;;;;;;8.20;2.13;;;;;;;17.14;57.98;99464.53;5030555;28;20057;-79
2022/07/06 01:51:18;;;;;;;3.45;1.77;;;;;;;16.94;57.86;99472.69;5029056;28;20038;-79
2022/07/06 01:53:44;;;;;;;5.22;2.28;;;;;;;17.19;58.75;99469.91;5014545;28;20041;-79
2022/07/06 01:56:10;;;;;;;2.10;1.90;;;;;;;17.39;56.67;99456.31;5024211;28;20040;-80
2022/07/06 01:58:36;;;;;;;2.88;1.83;;;;;;;17.59;56.17;99466.22;5025824;28;20033;-79
2022/07/06 02:01:07;;;;;;;1.90;1.70;;;;;;;17.66;56.23;99472.13;5030149;28;20044;-79
2022/07/06 02:03:33;;;;;;;2.42;1.63;;;;;;;17.66;55.96;99472.94;5032668;28;20044;-79
2022/07/06 02:05:58;;;;;;;2.35;1.45;;;;;;;17.61;55.95;99481.06;5032958;28;20029;-79
2022/07/06 02:08:24;;;;;;;4.95;1.58;;;;;;;17.63;56.32;99478.91;5015317;28;20112;-79
2022/07/06 02:10:49;;;;;;;4.88;1.63;;;;;;;17.23;57.71;99465.59;5032897;28;20033;-79
2022/07/06 02:13:14;;;;;;;2.95;1.80;;;;;;;17.05;59.03;99485.06;5029319;28;20033;-79
2022/07/06 02:15:40;;;;;;;3.47;1.52;;;;;;;17.13;57.42;99458.34;5027089;28;20045;-79
2022/07/06 02:18:05;;;;;;;5.00;1.52;;;;;;;17.60;56.54;99476.78;5007850;28;20200;-79
2022/07/06 02:20:31;;;;;;;2.53;1.50;;;;;;;17.65;56.99;99474.03;5013614;28;20485;-80
2022/07/06 02:22:56;;;;;;;2.83;1.52;;;;;;;17.39;57.13;99472.50;5030480;28;20063;-79
2022/07/06 02:25:22;;;;;;;4.18;1.75;;;;;;;17.60;58.04;99490.28;5028965;28;20100;-79
2022/07/06 02:27:47;;;;;;;1.83;1.55;;;;;;;17.51;57.27;99493.81;5026337;28;20038;-79
2022/07/06 02:30:13;;;;;;;2.92;1.50;;;;;;;17.50;56.86;99470.56;5030532;28;20028;-79
2022/07/06 02:32:38;;;;;;;4.05;1.50;;;;;;;17.68;56.39;99473.47;5046323;28;20033;-79
2022/07/06 02:35:04;;;;;;;3.45;1.52;;;;;;;17.84;56.28;99488.47;5027055;28;20033;-79
2022/07/06 02:37:29;;;;;;;1.98;1.63;;;;;;;17.48;57.80;99492.44;5027651;28;20444;-79
2022/07/06 02:39:55;;;;;;;1.33;1.23;;;;;;;17.60;57.10;99479.47;5026327;28;20097;-80
2022/07/06 02:42:20;;;;;;;7.43;1.85;;;;;;;17.01;59.98;99490.22;5029634;28;20036;-79
2022/07/06 02:44:45;;;;;;;6.72;1.65;;;;;;;17.25;57.89;99471.50;5027714;28;20029;-79
2022/07/06 02:47:11;;;;;;;6.20;1.80;;;;;;;17.41;59.37;99477.66;5013768;28;20028;-79
2022/07/06 02:49:36;;;;;;;4.05;2.08;;;;;;;17.45;59.06;99470.59;5031310;28;20116;-79
2022/07/06 02:52:02;;;;;;;2.47;1.40;;;;;;;17.52;57.19;99481.91;5015209;28;20033;-79
2022/07/06 02:54:27;;;;;;;2.25;1.92;;;;;;;17.66;57.05;99482.94;5033573;28;20034;-79
2022/07/06 02:56:53;;;;;;;2.47;1.42;;;;;;;17.59;56.91;99493.22;5014219;28;20457;-79
2022/07/06 02:59:19;;;;;;;6.80;2.17;;;;;;;17.16;58.63;99489.34;5031473;28;20026;-79
2022/07/06 03:01:45;;;;;;;5.03;2.35;;;;;;;16.83;61.44;99492.69;5047889;28;20053;-79
2022/07/06 03:04:11;;;;;;;4.45;2.08;;;;;;;16.70;61.26;99488.66;5031230;28;20128;-79
2022/07/06 03:06:36;;;;;;;5.13;1.98;;;;;;;16.29;61.74;99471.69;5029975;28;20082;-79
2022/07/06 03:09:02;;;;;;;5.05;1.90;;;;;;;16.20;63.81;99494.88;5030315;28;20619;-79
2022/07/06 03:11:28;;;;;;;4.88;1.70;;;;;;;16.17;63.11;99491.88;5028916;28;20037;-79
2022/07/06 03:13:53;;;;;;;6.00;2.35;;;;;;;15.94;64.82;99485.16;5032620;28;20554;-79
2022/07/06 03:16:19;;;;;;;3.08;2.40;;;;;;;16.46;60.68;99483.00;5032361;28;20092;-79
2022/07/06 03:18:44;;;;;;;4.60;1.95;;;;;;;16.19;63.34;99485.16;5011970;28;20034;-79
2022/07/06 03:21:09;;;;;;;5.47;2.28;;;;;;;15.66;65.00;99496.41;5024778;28;20040;-79
2022/07/06 03:23:35;;;;;;;7.45;2.33;;;;;;;15.71;65.55;99488.31;5028064;28;20481;-79
2022/07/06 03:26:00;;;;;;;1.70;1.25;;;;;;;16.40;60.84;99504.84;5031515;28;20037;-79
2022/07/06 03:28:26;;;;;;;2.28;1.75;;;;;;;16.88;59.29;99508.84;5012416;28;20071;-79
2022/07/06 03:30:51;;;;;;;3.50;1.73;;;;;;;17.11;59.29;99514.44;5029436;28;20036;-79
2022/07/06 03:33:16;;;;;;;3.72;1.77;;;;;;;16.94;59.84;99495.09;5027328;28;20025;-79
2022/07/06 03:35:42;;;;;;;3.78;1.52;;;;;;;17.00;58.88;99499.38;5011034;28;20037;-79
2022/07/06 03:38:08;;;;;;;3.90;1.42;;;;;;;17.22;59.83;99523.31;5031473;28;20045;-79
2022/07/06 03:40:33;;;;;;;2.47;1.50;;;;;;;17.06;59.29;99516.34;5031030;28;20041;-79
2022/07/06 03:42:59;;;;;;;6.50;2.28;;;;;;;16.99;61.02;99500.44;5029784;28;20052;-79
2022/07/06 03:45:24;;;;;;;2.60;1.73;;;;;;;17.07;59.51;99515.28;5033822;28;20033;-79
2022/07/06 03:47:49;;;;;;;4.25;1.98;;;;;;;17.20;58.78;99495.81;5013321;28;20018;-79
2022/07/06 03:50:15;;;;;;;4.28;1.40;;;;;;;17.37;58.46;99508.94;5010462;28;20037;-79
2022/07/06 03:52:40;;;;;;;4.43;1.83;;;;;;;17.63;57.53;99514.00;5024084;28;20649;-79
2022/07/06 03:55:11;;;;;;;3.00;1.30;;;;;;;17.62;57.69;99501.59;5022624;28;20034;-79
2022/07/06 03:57:37;;;;;;;2.75;1.60;;;;;;;17.58;57.88;99514.00;5028765;28;20390;-80
2022/07/06 04:00:04;;;;;;;4.40;1.60;;;;;;;17.69;57.20;99512.88;5029291;28;20597;-79
2022/07/06 04:02:30;;;;;;;5.05;2.15;;;;;;;17.46;59.71;99496.50;5041683;28;20029;-79
2022/07/06 04:04:55;;;;;;;2.67;1.52;;;;;;;17.24;59.35;99505.78;5044023;28;20093;-80
2022/07/06 04:07:21;;;;;;;2.75;1.80;;;;;;;17.42;58.62;99515.16;5030432;28;20618;-80
2022/07/06 04:09:46;;;;;;;1.83;1.48;;;;;;;17.49;58.71;99514.84;5028585;28;20048;-80
2022/07/06 04:12:12;;;;;;;2.22;1.55;;;;;;;17.75;57.42;99522.59;5022556;28;20477;-80
2022/07/06 04:14:37;;;;;;;3.67;1.60;;;;;;;17.46;58.79;99518.91;5028229;28;20037;-79
2022/07/06 04:19:47;;;;;;;2.38;1.50;;;;;;;17.55;58.28;99519.97;5043143;28;20068;-79
2022/07/06 04:22:12;;;;;;;4.05;1.85;;;;;;;17.71;57.49;99515.31;5005305;28;20025;-79
2022/07/06 04:24:37;;;;;;;2.50;1.55;;;;;;;17.57;57.92;99517.00;5007202;28;20095;-80
2022/07/06 04:27:03;;;;;;;2.67;1.67;;;;;;;17.45;58.18;99513.78;5022052;28;20052;-80
2022/07/06 04:29:28;;;;;;;2.20;1.30;;;;;;;17.22;58.65;99520.63;5024799;28;20072;-80
2022/07/06 04:31:54;;;;;;;4.88;1.40;;;;;;;17.38;59.14;99519.50;5003175;28;20060;-79
2022/07/06 04:34:20;;;;;;;1.65;1.48;;;;;;;16.58;60.93;99525.06;5019264;28;20041;-79
2022/07/06 04:36:46;;;;;;;2.63;1.25;;;;;;;16.91;60.51;99525.28;5016479;28;20017;-79
2022/07/06 04:39:11;;;;;;;1.42;1.33;;;;;;;17.18;59.19;99520.38;5019912;28;20032;-79
2022/07/06 04:41:37;;;;;;;4.80;1.70;;;;;;;17.31;59.08;99537.84;5005738;28;20069;-79
2022/07/06 04:44:03;;;;;;;3.47;1.60;;;;;;;17.20;59.63;99542.47;5022484;28;20044;-79
2022/07/06 04:46:28;;;;;;;2.25;1.52;;;;;;;17.49;58.55;99517.56;5017748;28;20029;-78
2022/07/06 04:48:54;;;;;;;4.15;1.58;;;;;;;17.51;59.15;99535.13;5026008;28;20034;-79
2022/07/06 04:51:19;;;;;;;4.35;1.40;;;;;;;17.69;57.96;99515.56;5033106;28;20052;-79
2022/07/06 04:53:45;;;;;;;4.38;1.75;;;;;;;16.94;61.44;99523.94;5011454;28;20116;-79
2022/07/06 04:56:11;;;;;;;3.95;1.75;;;;;;;17.69;59.04;99537.19;5013368;28;20035;-79
2022/07/06 04:58:36;;;;;;;4.70;1.65;;;;;;;17.58;59.42;99541.00;5026169;28;20045;-79
2022/07/06 05:01:02;;;;;;;2.17;1.55;;;;;;;17.98;57.13;99531.88;5033976;28;20432;-79
2022/07/06 05:03:27;;;;;;;6.72;1.98;;;;;;;17.76;58.80;99531.47;5033357;28;20029;-79
2022/07/06 05:05:53;;;;;;;4.18;1.83;;;;;;;18.21;56.81;99560.13;5014784;28;20124;-79
2022/07/06 05:08:18;;;;;;;2.58;2.03;;;;;;;17.89;58.25;99553.28;5029896;28;20030;-79
2022/07/06 05:10:43;;;;;;;3.53;1.85;;;;;;;18.14;57.03;99533.41;5025542;28;20037;-79
2022/07/06 05:13:09;;;;;;;1.48;1.38;;;;;;;18.12;58.33;99532.06;5045750;28;20557;-79
2022/07/06 05:15:34;;;;;;;4.38;1.38;;;;;;;18.13;57.33;99541.81;5028300;28;20041;-79
2022/07/06 05:18:00;;;;;;;4.15;1.50;;;;;;;17.86;58.55;99553.03;5007570;28;20120;-79
2022/07/06 05:20:25;;;;;;;4.38;1.88;;;;;;;17.80;57.98;99541.44;5029096;28;20124;-79
2022/07/06 05:22:51;;;;;;;4.15;1.80;;;;;;;17.90;58.00;99554.09;4990900;28;20033;-79
2022/07/06 05:25:16;;;;;;;1.50;1.40;;;;;;;18.05;58.06;99553.19;5027184;28;20044;-79
2022/07/06 05:27:42;;;;;;;4.10;2.38;;;;;;;18.20;57.31;99553.91;5032146;28;20022;-79
2022/07/06 05:30:08;;;;;;;2.75;1.55;;;;;;;18.13;57.05;99536.41;5026705;28;20038;-79
2022/07/06 05:32:33;;;;;;;4.68;1.83;;;;;;;18.05;57.89;99554.00;5044691;28;20128;-79
2022/07/06 05:34:58;;;;;;;5.25;1.77;;;;;;;18.15;57.70;99555.84;5028720;28;20037;-79
2022/07/06 05:37:24;;;;;;;4.22;1.48;;;;;;;18.15;57.60;99562.03;5006140;28;20565;-79
2022/07/06 05:39:50;;;;;;;5.20;2.50;;;;;;;17.88;58.52;99556.25;5012170;28;20037;-79
2022/07/06 05:42:15;;;;;;;5.47;2.50;;;;;;;17.30;60.49;99559.72;4994620;28;20132;-79
2022/07/06 05:44:41;;;;;;;12.50;2.13;;;;;;;17.87;58.49;99550.06;5013701;28;20300;-79
2022/07/06 05:52:34;;;;;;;2.85;1.55;;;;;;;18.21;57.45;99569.03;5011411;28;20048;-79
2022/07/06 05:55:00;;;;;;;3.03;1.58;;;;;;;18.14;58.19;99570.44;5009986;28;20418;-80
2022/07/06 05:57:26;;;;;;;3.67;1.50;;;;;;;18.03;58.89;99580.50;5011708;28;20037;-79
2022/07/06 05:59:51;;;;;;;2.17;1.50;;;;;;;17.69;58.99;99566.88;5008990;28;20316;-79
2022/07/06 06:02:17;;;;;;;7.03;1.40;;;;;;;17.90;58.60;99560.31;5013258;28;20099;-79
2022/07/06 06:04:42;;;;;;;4.35;1.85;;;;;;;18.32;57.46;99577.88;5013281;28;20485;-79
2022/07/06 06:07:08;;;;;;;6.32;1.75;;;;;;;18.11;57.73;99566.38;5015102;28;20049;-79
2022/07/06 06:09:33;;;;;;;6.60;2.03;;;;;;;17.78;58.63;99578.72;5017932;28;20138;-79
2022/07/06 06:11:58;;;;;;;4.53;1.98;;;;;;;17.89;58.66;99564.09;5014558;28;20520;-79
2022/07/06 06:14:24;;;;;;;7.63;1.83;;;;;;;17.92;59.22;99577.03;5017431;28;20080;-79
2022/07/06 06:16:49;;;;;;;4.25;1.88;;;;;;;17.79;58.50;99564.16;5013414;28;20033;-79
2022/07/06 06:19:15;;;;;;;3.22;1.75;;;;;;;18.07;57.78;99564.53;4999790;28;20041;-79
2022/07/06 06:21:40;;;;;;;6.45;2.13;;;;;;;17.73;59.17;99576.06;5010709;28;20080;-79
2022/07/06 06:24:06;;;;;;;4.82;2.25;;;;;;;17.63;59.30;99581.50;4979720;28;21113;-79
2022/07/06 06:26:31;;;;;;;4.00;1.88;;;;;;;17.83;58.58;99561.69;5015191;28;20040;-79
2022/07/06 06:28:57;;;;;;;4.50;1.67;;;;;;;18.51;56.57;99582.38;5012196;28;20616;-79
2022/07/06 06:31:22;;;;;;;5.25;1.25;;;;;;;18.18;57.06;99576.88;5014351;28;20102;-79
2022/07/06 06:33:48;;;;;;;4.72;1.75;;;;;;;18.02;57.99;99573.47;5027454;28;20544;-79
2022/07/06 06:36:13;;;;;;;3.08;1.67;;;;;;;18.35;57.58;99585.41;4995185;28;20083;-79
2022/07/06 06:38:39;;;;;;;2.75;1.38;;;;;;;18.26;57.63;99584.41;5013439;28;20128;-79
2022/07/06 06:41:04;;;;;;;6.80;1.80;;;;;;;18.15;58.21;99596.38;4991921;28;20029;-79
2022/07/06 06:43:29;;;;;;;3.00;1.25;;;;;;;18.51;56.98;99601.28;5014538;28;20034;-79
2022/07/06 06:45:55;;;;;;;4.32;1.75;;;;;;;18.24;57.10;99602.81;5026645;28;20088;-79
2022/07/06 06:48:20;;;;;;;4.57;2.03;;;;;;;18.47;57.19;99586.72;5016086;28;20381;-79
2022/07/06 06:50:46;;;;;;;6.63;1.65;;;;;;;18.58;56.58;99595.56;5015958;28;20397;-79
2022/07/06 06:53:12;;;;;;;6.40;1.70;;;;;;;18.61;56.07;99584.16;5013554;28;21201;-79
2022/07/06 06:55:37;;;;;;;4.78;2.03;;;;;;;18.03;57.72;99601.28;5016115;28;20402;-79
2022/07/06 06:58:03;;;;;;;1.95;1.45;;;;;;;18.33;56.99;99587.59;4993597;28;20741;-79
2022/07/06 07:00:28;;;;;;;4.10;1.60;;;;;;;18.18;55.65;99601.19;4977696;28;20037;-79
2022/07/06 07:02:54;;;;;;;6.65;2.20;;;;;;;18.29;57.23;99590.06;5013067;28;20076;-79
2022/07/06 07:05:19;;;;;;;2.80;1.60;;;;;;;18.45;56.92;99593.50;5016372;28;20265;-79
2022/07/06 07:07:45;;;;;;;2.30;1.60;;;;;;;18.72;55.55;99601.94;5008271;28;20032;-79
2022/07/06 07:10:10;;;;;;;5.93;1.77;;;;;;;18.50;55.65;99604.28;5010706;28;20124;-79
2022/07/06 07:12:45;;;;;;;2.58;1.40;;;;;;;18.65;55.62;99587.94;5009571;28;20136;-79
2022/07/06 07:15:11;;;;;;;2.75;1.77;;;;;;;18.83;55.41;99603.47;5010527;28;20083;-79
2022/07/06 07:17:36;;;;;;;4.03;1.50;;;;;;;18.62;55.30;99608.25;4993139;28;20033;-79
2022/07/06 07:20:02;;;;;;;4.72;1.80;;;;;;;18.73;55.03;99614.38;5013262;28;20037;-79
2022/07/06 07:22:27;;;;;;;2.28;1.85;;;;;;;18.90;55.06;99600.44;5012150;28;20060;-79
2022/07/06 07:24:53;;;;;;;5.10;1.30;;;;;;;19.29;54.09;99611.94;4996822;28;20033;-80
2022/07/06 07:27:18;;;;;;;4.32;1.85;;;;;;;18.88;54.81;99600.72;4990941;28;20038;-79
2022/07/06 07:29:43;;;;;;;1.67;1.48;;;;;;;17.96;56.04;99590.78;5011401;28;20059;-79
2022/07/06 07:32:09;;;;;;;4.65;1.45;;;;;;;18.66;55.46;99616.59;5013849;28;20029;-79
2022/07/06 07:34:34;;;;;;;7.50;1.95;;;;;;;18.67;54.29;99608.19;5012214;28;20037;-79
2022/07/06 07:37:00;;;;;;;3.10;1.30;;;;;;;19.21;53.96;99624.22;4991360;28;20033;-79
2022/07/06 07:39:25;;;;;;;3.17;1.23;;;;;;;19.33;53.26;99613.81;5013050;28;20087;-79
2022/07/06 07:41:50;;;;;;;1.80;1.50;;;;;;;19.46;52.82;99623.19;5000041;28;20029;-79
2022/07/06 07:44:16;;;;;;;4.10;1.77;;;;;;;19.28;53.22;99623.88;5009114;28;20087;-79
2022/07/06 07:46:41;;;;;;;4.65;1.55;;;;;;;18.91;53.89;99618.28;5011139;28;20095;-79
2022/07/06 07:49:07;;;;;;;3.65;1.63;;;;;;;18.63;53.73;99628.00;5012124;28;20041;-79
2022/07/06 07:51:33;;;;;;;5.97;1.42;;;;;;;19.39;53.10;99620.84;5022600;28;20497;-79
2022/07/06 07:53:58;;;;;;;3.58;1.33;;;;;;;19.44;52.47;99622.66;5022227;28;20847;-79
2022/07/06 07:56:23;;;;;;;2.47;1.70;;;;;;;19.50;52.55;99631.53;5014040;28;20032;-79
2022/07/06 07:58:49;;;;;;;3.72;1.50;;;;;;;19.08;53.09;99626.78;5012643;28;20091;-79
2022/07/06 08:01:14;;;;;;;3.25;1.58;;;;;;;19.47;52.75;99624.78;5013687;28;20060;-79
2022/07/06 08:03:40;;;;;;;3.10;1.52;;;;;;;19.57;52.74;99613.06;5011175;28;20389;-79
2022/07/06 08:06:05;;;;;;;3.00;1.45;;;;;;;19.30;52.49;99559.44;4990455;28;20041;-79
2022/07/06 08:08:31;;;;;;;3.30;1.70;;;;;;;19.51;52.47;99616.91;4996732;28;20048;-79
2022/07/06 08:10:56;;;;;;;5.25;1.48;;;;;;;19.45;52.41;99586.38;5014945;28;20503;-79
2022/07/06 08:13:22;;;;;;;5.40;1.58;;;;;;;19.93;51.48;99608.81;5011569;28;20060;-79
2022/07/06 08:15:47;;;;;;;1.48;1.38;;;;;;;19.89;50.81;99613.19;5011876;28;20040;-79
2022/07/06 08:18:12;;;;;;;2.78;1.40;;;;;;;19.65;52.08;99602.41;5010872;28;20045;-79
2022/07/06 08:20:38;;;;;;;2.60;1.15;;;;;;;19.44;49.41;99612.63;5010833;28;20052;-79
2022/07/06 08:23:04;;;;;;;2.67;1.25;;;;;;;19.53;49.48;99625.56;5011187;28;20029;-79
2022/07/06 08:25:30;;;;;;;2.03;0.98;;;;;;;19.53;51.22;99625.56;5008262;28;20211;-79
2022/07/06 08:27:55;;;;;;;2.55;1.50;;;;;;;19.73;50.64;99615.28;5011852;28;20037;-79
2022/07/06 08:30:20;;;;;;;4.43;1.10;;;;;;;19.79;50.73;99613.34;5013610;28;20033;-79
2022/07/06 08:32:46;;;;;;;4.38;1.45;;;;;;;19.23;50.32;99618.53;5011315;28;20045;-79
2022/07/06 08:35:11;;;;;;;3.72;0.93;;;;;;;19.57;50.64;99594.09;5008924;28;20037;-79
2022/07/06 08:37:37;;;;;;;3.00;1.30;;;;;;;19.68;50.73;99617.25;5010883;28;20133;-79
2022/07/06 08:40:03;;;;;;;2.78;1.30;;;;;;;19.95;49.92;99612.84;5012416;28;20033;-79
2022/07/06 08:42:31;;;;;;;1.95;1.10;;;;;;;20.17;49.80;99604.16;5013268;28;20041;-79
2022/07/06 08:45:02;;;;;;;3.85;1.42;;;;;;;20.03;49.21;99619.50;5028276;28;20037;-79
2022/07/06 08:47:28;;;;;;;2.70;0.93;;;;;;;20.10;49.44;99620.78;5010614;28;20029;-79
2022/07/06 08:49:55;;;;;;;1.77;1.45;;;;;;;20.16;50.07;99626.91;4992243;28;20040;-78
2022/07/06 08:52:22;;;;;;;1.30;1.20;;;;;;;20.28;48.94;99619.22;5023809;28;20083;-79
2022/07/06 08:54:48;;;;;;;1.80;1.30;;;;;;;19.97;48.69;99607.94;5010012;28;20048;-79
2022/07/06 08:57:14;;;;;;;5.28;1.60;;;;;;;20.10;48.58;99609.13;5009188;28;20647;-79
2022/07/06 08:59:42;;;;;;;3.88;1.33;;;;;;;20.72;47.19;99600.63;4993997;28;20057;-79
2022/07/06 09:02:09;;;;;;;2.42;1.20;;;;;;;20.40;48.15;99597.88;4994184;28;20509;-79
2022/07/06 09:04:36;;;;;;;1.63;1.20;;;;;;;20.40;47.64;99605.22;5013531;28;20485;-79
2022/07/06 09:07:07;;;;;;;1.20;1.10;;;;;;;20.82;47.63;99605.88;5007178;28;20032;-78
2022/07/06 09:09:33;;;;;;;3.17;1.00;;;;;;;20.82;47.52;99611.31;5010814;28;20025;-79
2022/07/06 09:11:59;;;;;;;3.45;1.13;;;;;;;20.60;48.20;99619.25;5012855;28;20040;-79
2022/07/06 09:14:24;;;;;;;4.25;1.17;;;;;;;20.97;47.33;99623.81;5025927;28;20029;-79
2022/07/06 09:17:05;;;;;;;4.18;1.30;;;;;;;20.76;48.12;99612.50;5023568;28;20481;-79
2022/07/06 09:19:33;;;;;;;2.28;1.00;;;;;;;20.94;47.74;99600.00;5015649;28;20085;-79
2022/07/06 09:21:59;;;;;;;5.20;1.40;;;;;;;21.01;47.34;99615.91;5012605;28;20029;-79
2022/07/06 09:24:26;;;;;;;1.73;0.90;;;;;;;20.81;48.15;99625.19;5010955;28;20029;-79
2022/07/06 09:26:55;;;;;;;4.45;1.25;;;;;;;20.80;47.89;99607.28;5004375;28;20040;-79
2022/07/06 09:29:32;;;;;;;2.80;1.15;;;;;;;20.76;47.84;99608.97;5024659;28;20379;-79
2022/07/06 09:32:02;;;;;;;0.95;0.70;;;;;;;20.62;47.63;99621.69;5013875;28;20040;-79
2022/07/06 09:34:42;;;;;;;2.80;0.90;;;;;;;20.39;47.03;99628.81;5014912;28;20061;-79
2022/07/06 09:37:08;;;;;;;1.17;1.02;;;;;;;20.38;48.09;99621.75;5013268;28;20037;-80
2022/07/06 09:39:33;;;;;;;1.67;1.10;;;;;;;20.78;47.66;99621.16;5020129;28;20048;-79
2022/07/06 09:42:01;;;;;;;1.45;0.93;;;;;;;21.00;47.24;99625.13;5012994;28;20037;-79
2022/07/06 09:44:29;;;;;;;4.85;1.33;;;;;;;20.74;47.11;99617.41;5015081;28;20056;-79
2022/07/06 09:47:03;;;;;;;7.93;2.90;;;;;;;20.43;48.03;99632.53;5029544;28;20037;-79
2022/07/06 09:49:29;;;;;;;6.03;1.17;;;;;;;20.52;47.24;99614.50;5031938;28;20052;-79
2022/07/06 09:51:57;;;;;;;3.70;1.58;;;;;;;20.56;47.44;99629.09;5030592;28;20030;-79
2022/07/06 09:54:23;;;;;;;12.63;1.52;;;;;;;20.33;48.42;99627.28;4999244;28;20040;-79
2022/07/06 09:56:51;;;;;;;2.53;1.20;;;;;;;20.52;48.17;99613.69;5011828;28;20028;-79
2022/07/06 09:59:18;;;;;;;3.22;1.20;;;;;;;20.75;48.11;99626.38;5028677;28;20033;-79
2022/07/06 10:01:44;;;;;;;3.53;1.20;;;;;;;20.88;47.53;99631.03;5008545;28;20388;-79
2022/07/06 10:04:18;;;;;;;1.13;1.02;;;;;;;20.66;48.31;99634.34;5015035;28;20033;-79
2022/07/06 10:06:44;;;;;;;3.53;1.50;;;;;;;20.85;48.08;99621.59;5016531;28;20523;-79
2022/07/06 10:09:11;;;;;;;4.20;1.10;;;;;;;20.92;47.74;99640.97;5013049;28;20496;-79
2022/07/06 10:11:42;;;;;;;3.83;1.00;;;;;;;20.88;48.24;99634.53;5014812;28;20040;-79
2022/07/06 10:14:08;;;;;;;2.10;0.93;;;;;;;20.99;47.81;99615.38;5018684;28;20090;-79
2022/07/06 10:16:37;;;;;;;2.53;0.82;;;;;;;21.04;47.54;99624.28;5010329;28;20136;-79
2022/07/06 10:19:06;;;;;;;2.33;0.75;;;;;;;21.11;47.07;99624.69;5010887;28;20041;-79
2022/07/06 10:21:36;;;;;;;2.70;1.33;;;;;;;21.19;47.12;99621.28;5016759;28;20634;-79
2022/07/06 10:24:03;;;;;;;3.33;1.10;;;;;;;21.15;46.65;99622.19;4990717;28;20033;-79
2022/07/06 10:26:30;;;;;;;3.90;0.90;;;;;;;20.36;47.70;99620.44;5015928;28;20780;-79
2022/07/06 10:28:57;;;;;;;3.45;0.93;;;;;;;21.31;46.38;99624.34;5003696;28;20701;-79
2022/07/06 10:31:24;;;;;;;4.47;2.05;;;;;;;21.29;46.21;99623.03;5027435;28;20041;-79
2022/07/06 10:33:51;;;;;;;5.50;1.08;;;;;;;21.49;45.90;99612.56;5014161;28;20041;-79
2022/07/06 10:36:17;;;;;;;2.38;0.82;;;;;;;21.36;46.19;99629.66;4992994;28;20614;-79
2022/07/06 10:38:48;;;;;;;1.63;0.98;;;;;;;21.55;45.36;99618.72;5015485;28;20091;-79
2022/07/06 10:41:14;;;;;;;2.33;0.95;;;;;;;20.93;46.14;99607.31;5014963;28;20068;-79
2022/07/06 10:43:44;;;;;;;7.63;1.70;;;;;;;21.32;45.94;99634.09;5012773;28;20132;-79
2022/07/06 10:46:16;;;;;;;2.13;1.08;;;;;;;21.54;45.50;99630.69;4993697;28;20038;-79
2022/07/06 10:48:44;;;;;;;3.25;1.10;;;;;;;21.48;46.18;99631.91;5015530;28;20013;-79
2022/07/06 10:51:23;;;;;;;2.80;1.35;;;;;;;21.44;45.84;99634.41;5012238;28;20417;-79
2022/07/06 10:53:59;;;;;;;3.90;1.25;;;;;;;21.40;46.13;99627.16;5028097;28;20036;-79
2022/07/06 10:56:38;;;;;;;;;;;;;;;21.56;46.15;99629.28;5007375;28;20030;-80
2022/07/06 10:59:13;;;;;;;3.00;1.10;;;;;;;21.32;46.29;99614.25;5015787;28;19921;-79
2022/07/06 11:01:39;;;;;;;4.00;1.60;;;;;;;21.40;45.84;99625.25;5006938;28;20037;-79
2022/07/06 11:04:06;;;;;;;3.65;1.63;;;;;;;21.31;46.15;99624.34;5010298;28;21243;-79
2022/07/06 11:06:34;;;;;;;4.25;0.98;;;;;;;21.35;45.65;99619.09;5013005;28;20036;-79
2022/07/06 11:09:10;;;;;;;3.38;1.10;;;;;;;21.29;46.08;99610.25;5013028;28;20481;-79
2022/07/06 11:11:35;;;;;;;1.83;0.75;;;;;;;21.46;45.80;99620.53;5011716;28;20029;-79
2022/07/06 11:14:05;;;;;;;1.35;0.95;;;;;;;21.28;45.74;99597.78;5015324;28;20045;-79
2022/07/06 11:16:38;;;;;;;3.28;1.20;;;;;;;21.56;45.54;99612.16;5011518;28;20581;-79
2022/07/06 11:19:09;;;;;;;3.47;1.15;;;;;;;21.62;44.73;99616.41;5008540;28;20037;-79
2022/07/06 11:21:45;;;;;;;1.58;0.65;;;;;;;21.81;44.92;99610.88;5016480;28;20033;-80
2022/07/06 11:24:15;;;;;;;0.88;0.60;;;;;;;21.67;44.63;99607.38;5020676;28;20029;-79
2022/07/06 11:26:42;;;;;;;4.15;1.10;;;;;;;22.29;43.08;99614.75;5022382;28;20052;-79
2022/07/06 11:29:10;;;;;;;3.13;0.73;;;;;;;22.44;42.35;99597.25;5011500;28;20044;-79
2022/07/06 11:31:37;;;;;;;1.25;0.73;;;;;;;22.68;42.27;99614.94;5009495;28;20033;-79
2022/07/06 11:34:05;;;;;;;0.77;0.77;;;;;;;22.48;41.45;99604.50;5021509;28;20033;-79
2022/07/06 11:36:31;;;;;;;1.73;1.15;;;;;;;22.69;41.10;99604.88;5025751;28;20116;-79
2022/07/06 11:38:56;;;;;;;8.38;1.38;;;;;;;22.73;41.47;99595.78;5028039;28;20104;-79